createdAt,value
2023-05-14T00:00:26.759Z,0.50
2023-05-14T00:02:53.166Z,0.40
2023-05-14T00:05:19.617Z,0.30
2023-05-14T00:07:45.860Z,0.45
2023-05-14T00:10:12.154Z,0.60
2023-05-14T00:12:38.412Z,0.50
2023-05-14T00:15:04.857Z,0.50
2023-05-14T00:17:31.288Z,0.30
2023-05-14T00:19:57.631Z,0.40
2023-05-14T00:22:23.959Z,0.50
2023-05-14T00:24:50.358Z,0.40
2023-05-14T00:27:16.611Z,0.60
2023-05-14T00:29:42.839Z,0.55
2023-05-14T00:32:09.064Z,0.52
2023-05-14T00:34:35.676Z,0.80
2023-05-14T00:37:01.911Z,0.73
2023-05-14T00:39:28.180Z,0.63
2023-05-14T00:41:54.412Z,0.40
2023-05-14T00:44:20.651Z,0.30
2023-05-14T00:46:47.254Z,0.50
2023-05-14T00:49:13.552Z,0.70
2023-05-14T00:51:39.869Z,0.47
2023-05-14T00:54:06.374Z,0.32
2023-05-14T00:56:32.698Z,0.30
2023-05-14T00:58:59.371Z,0.30
2023-05-14T01:01:28.472Z,0.32
2023-05-14T01:03:57.696Z,0.30
2023-05-14T01:06:30.131Z,0.35
2023-05-14T01:09:03.084Z,0.50
2023-05-14T01:11:30.544Z,0.40
2023-05-14T01:13:56.827Z,0.50
2023-05-14T01:16:26.167Z,0.30
2023-05-14T01:18:53.338Z,0.32
2023-05-14T01:21:40.378Z,0.57
2023-05-14T01:24:07.406Z,0.40
2023-05-14T01:26:33.777Z,0.40
2023-05-14T01:29:02.464Z,0.45
2023-05-14T01:31:32.128Z,0.40
2023-05-14T01:33:58.851Z,0.60
2023-05-14T01:36:25.278Z,0.30
2023-05-14T01:38:51.625Z,0.50
2023-05-14T01:41:18.612Z,0.43
2023-05-14T01:43:45.395Z,0.50
2023-05-14T01:46:11.702Z,0.50
2023-05-14T01:48:37.931Z,0.50
2023-05-14T01:51:04.171Z,0.57
2023-05-14T01:53:30.403Z,0.50
2023-05-14T01:55:56.662Z,0.40
2023-05-14T01:58:22.912Z,0.40
2023-05-14T02:00:49.125Z,0.45
2023-05-14T02:03:15.425Z,0.30
2023-05-14T02:05:41.677Z,0.30
2023-05-14T02:08:07.986Z,0.30
2023-05-14T02:10:34.214Z,0.30
2023-05-14T02:13:00.769Z,0.20
2023-05-14T02:15:27.032Z,0.20
2023-05-14T02:17:53.269Z,0.30
2023-05-14T02:20:19.562Z,0.22
2023-05-14T02:22:46.178Z,0.13
2023-05-14T02:25:12.472Z,0.30
2023-05-14T02:27:38.774Z,0.20
2023-05-14T02:30:06.099Z,0.30
2023-05-14T02:32:32.421Z,0.20
2023-05-14T02:34:58.736Z,0.20
2023-05-14T02:37:25.028Z,0.20
2023-05-14T02:39:51.290Z,0.15
2023-05-14T02:42:17.545Z,0.30
2023-05-14T02:44:43.881Z,0.20
2023-05-14T02:47:10.231Z,0.40
2023-05-14T02:49:36.509Z,0.20
2023-05-14T02:52:03.389Z,0.20
2023-05-14T02:54:29.611Z,0.40
2023-05-14T02:56:55.871Z,0.20
2023-05-14T02:59:23.539Z,0.28
2023-05-14T03:01:50.412Z,0.20
2023-05-14T03:04:17.027Z,0.28
2023-05-14T03:06:43.235Z,0.20
2023-05-14T03:09:09.533Z,0.08
2023-05-14T03:11:35.904Z,0.20
2023-05-14T03:14:02.181Z,0.10
2023-05-14T03:16:28.432Z,0.25
2023-05-14T03:18:54.802Z,0.20
2023-05-14T03:21:21.031Z,0.30
2023-05-14T03:23:47.280Z,0.13
2023-05-14T03:26:13.511Z,0.10
2023-05-14T03:28:40.700Z,0.10
2023-05-14T03:31:07.035Z,0.20
2023-05-14T03:33:33.798Z,0.20
2023-05-14T03:36:00.109Z,0.17
2023-05-14T03:38:26.322Z,0.30
2023-05-14T03:40:52.558Z,0.30
2023-05-14T03:43:18.830Z,0.20
2023-05-14T03:45:45.117Z,0.20
2023-05-14T03:48:11.446Z,0.22
2023-05-14T03:50:37.770Z,0.10
2023-05-14T03:53:03.974Z,0.20
2023-05-14T03:55:30.226Z,0.30
2023-05-14T03:57:56.506Z,0.22
2023-05-14T04:00:22.905Z,0.20
2023-05-14T04:02:49.346Z,0.30
2023-05-14T04:05:15.638Z,0.30
2023-05-14T04:07:41.879Z,0.30
2023-05-14T04:10:08.422Z,0.20
2023-05-14T04:12:34.724Z,0.17
2023-05-14T04:15:00.967Z,0.20
2023-05-14T04:17:27.263Z,0.20
2023-05-14T04:19:53.590Z,0.10
2023-05-14T04:22:19.841Z,0.20
2023-05-14T04:24:46.139Z,0.20
2023-05-14T04:27:14.897Z,0.10
2023-05-14T04:29:41.175Z,0.25
2023-05-14T04:32:07.613Z,0.20
2023-05-14T04:34:34.143Z,0.22
2023-05-14T04:37:00.539Z,0.22
2023-05-14T04:39:26.878Z,0.20
2023-05-14T04:41:53.070Z,0.20
2023-05-14T04:44:19.270Z,0.20
2023-05-14T04:46:45.531Z,0.20
2023-05-14T04:49:12.045Z,0.30
2023-05-14T04:51:38.248Z,0.30
2023-05-14T04:54:04.558Z,0.30
2023-05-14T04:56:30.823Z,0.30
2023-05-14T04:58:57.131Z,0.30
2023-05-14T05:01:23.566Z,0.25
2023-05-14T05:03:49.928Z,0.30
2023-05-14T05:06:16.312Z,0.20
2023-05-14T05:08:42.544Z,0.20
2023-05-14T05:11:08.779Z,0.40
2023-05-14T05:13:35.025Z,0.60
2023-05-14T05:16:01.459Z,0.32
2023-05-14T05:18:27.739Z,0.30
2023-05-14T05:20:53.996Z,0.20
2023-05-14T05:23:20.242Z,0.30
2023-05-14T05:25:46.487Z,0.20
2023-05-14T05:28:12.743Z,0.50
2023-05-14T05:30:39.492Z,0.40
2023-05-14T05:33:05.815Z,0.40
2023-05-14T05:35:32.174Z,0.35
2023-05-14T05:37:59.825Z,0.30
2023-05-14T05:40:27.485Z,0.30
2023-05-14T05:42:53.730Z,0.30
2023-05-14T05:45:20.107Z,0.20
2023-05-14T05:47:46.423Z,0.40
2023-05-14T05:50:12.779Z,0.38
2023-05-14T05:52:39.200Z,0.20
2023-05-14T05:55:05.695Z,0.30
2023-05-14T05:57:32.002Z,0.30
2023-05-14T05:59:58.241Z,0.50
2023-05-14T06:02:25.218Z,0.40
2023-05-14T06:04:53.046Z,0.55
2023-05-14T06:07:19.382Z,0.30
2023-05-14T06:09:45.646Z,0.20
2023-05-14T06:12:11.895Z,0.38
2023-05-14T06:14:38.147Z,0.30
2023-05-14T06:17:04.514Z,0.47
2023-05-14T06:19:30.748Z,0.22
2023-05-14T06:21:56.975Z,0.40
2023-05-14T06:24:23.306Z,0.40
2023-05-14T06:26:49.541Z,0.40
2023-05-14T06:29:15.841Z,0.22
2023-05-14T06:31:42.181Z,0.28
2023-05-14T06:34:09.103Z,0.30
2023-05-14T06:36:35.353Z,0.25
2023-05-14T06:39:01.577Z,0.40
2023-05-14T06:41:27.941Z,0.25
2023-05-14T06:43:55.154Z,0.40
2023-05-14T06:46:21.440Z,0.28
2023-05-14T06:48:47.697Z,0.35
2023-05-14T06:51:13.955Z,0.47
2023-05-14T06:53:40.451Z,0.22
2023-05-14T06:56:06.687Z,0.50
2023-05-14T06:58:32.997Z,0.40
2023-05-14T07:00:59.858Z,0.30
2023-05-14T07:03:26.203Z,0.40
2023-05-14T07:05:52.436Z,0.30
2023-05-14T07:08:18.645Z,0.40
2023-05-14T07:10:44.922Z,0.20
2023-05-14T07:13:11.171Z,0.30
2023-05-14T07:15:37.488Z,0.40
2023-05-14T07:18:03.884Z,0.32
2023-05-14T07:20:30.252Z,0.30
2023-05-14T07:22:56.479Z,0.30
2023-05-14T07:25:22.699Z,0.40
2023-05-14T07:27:49.122Z,0.30
2023-05-14T07:30:15.562Z,0.70
2023-05-14T07:32:42.301Z,1.30
2023-05-14T07:35:09.362Z,0.90
2023-05-14T07:37:35.694Z,0.50
2023-05-14T07:40:02.026Z,0.35
2023-05-14T07:42:35.861Z,0.38
2023-05-14T07:45:02.838Z,0.20
2023-05-14T07:47:29.219Z,0.50
2023-05-14T07:49:56.230Z,0.60
2023-05-14T07:52:22.897Z,0.22
2023-05-14T07:54:50.731Z,0.30
2023-05-14T07:57:17.299Z,0.20
2023-05-14T07:59:43.670Z,0.30
2023-05-14T08:02:13.050Z,0.30
2023-05-14T08:04:39.678Z,0.40
2023-05-14T08:07:07.192Z,0.30
2023-05-14T08:09:33.486Z,0.20
2023-05-14T08:11:59.792Z,0.35
2023-05-14T08:14:26.042Z,0.30
2023-05-14T08:16:52.726Z,0.20
2023-05-14T08:19:19.172Z,0.22
2023-05-14T08:21:45.518Z,0.20
2023-05-14T08:24:12.232Z,0.32
2023-05-14T08:26:38.890Z,0.30
2023-05-14T08:29:05.339Z,0.20
2023-05-14T08:31:31.673Z,0.30
2023-05-14T08:33:58.132Z,0.40
2023-05-14T08:36:24.388Z,0.40
2023-05-14T08:38:50.702Z,0.40
2023-05-14T08:41:16.955Z,0.30
2023-05-14T08:43:45.743Z,0.28
2023-05-14T08:46:13.288Z,0.32
2023-05-14T08:48:40.716Z,0.50
2023-05-14T08:51:07.651Z,0.35
2023-05-14T08:53:34.025Z,0.30
2023-05-14T08:56:01.615Z,0.57
2023-05-14T08:58:28.793Z,0.50
2023-05-14T09:00:55.077Z,0.55
2023-05-14T09:03:22.981Z,0.50
2023-05-14T09:05:51.353Z,0.47
2023-05-14T09:08:17.666Z,0.30
2023-05-14T09:10:43.967Z,0.30
2023-05-14T09:13:10.332Z,0.30
2023-05-14T09:15:37.242Z,0.30
2023-05-14T09:18:06.565Z,0.40
2023-05-14T09:20:33.149Z,0.30
2023-05-14T09:23:02.217Z,0.30
2023-05-14T09:25:31.974Z,0.30
2023-05-14T09:27:58.926Z,0.77
2023-05-14T09:30:26.860Z,1.10
2023-05-14T09:32:54.125Z,0.60
2023-05-14T09:35:21.661Z,0.30
2023-05-14T09:37:49.364Z,1.08
2023-05-14T09:40:16.137Z,1.58
2023-05-14T09:42:42.770Z,0.40
2023-05-14T09:45:09.615Z,0.52
2023-05-14T09:47:36.936Z,0.70
2023-05-14T09:50:03.915Z,0.30
2023-05-14T09:52:30.357Z,0.30
2023-05-14T09:54:56.889Z,0.47
2023-05-14T09:57:23.151Z,0.30
2023-05-14T09:59:49.464Z,0.20
2023-05-14T10:02:20.705Z,0.10
2023-05-14T10:04:47.895Z,0.20
2023-05-14T10:07:14.262Z,0.17
2023-05-14T10:09:41.566Z,0.50
2023-05-14T10:12:08.307Z,0.68
2023-05-14T10:14:40.925Z,0.50
2023-05-14T10:17:07.659Z,0.80
2023-05-14T10:19:35.289Z,0.32
2023-05-14T10:22:05.456Z,0.20
2023-05-14T10:24:32.322Z,0.20
2023-05-14T10:26:58.748Z,0.20
2023-05-14T10:29:35.015Z,0.30
2023-05-14T10:32:06.258Z,0.30
2023-05-14T10:34:37.712Z,0.28
2023-05-14T10:37:08.239Z,0.30
2023-05-14T10:39:44.826Z,0.30
2023-05-14T10:42:13.018Z,0.20
2023-05-14T10:44:42.705Z,0.30
2023-05-14T10:47:08.961Z,0.20
2023-05-14T10:49:42.789Z,0.30
2023-05-14T10:52:10.730Z,0.10
2023-05-14T10:54:36.961Z,0.38
2023-05-14T10:57:03.498Z,0.20
2023-05-14T10:59:29.808Z,0.60
2023-05-14T11:01:59.242Z,0.40
2023-05-14T11:04:27.477Z,0.30
2023-05-14T11:06:53.853Z,0.30
2023-05-14T11:09:21.163Z,0.17
2023-05-14T11:11:47.637Z,0.30
2023-05-14T11:14:13.904Z,0.40
2023-05-14T11:16:41.322Z,0.25
2023-05-14T11:19:07.572Z,0.28
2023-05-14T11:21:33.836Z,0.20
2023-05-14T11:24:00.607Z,0.10
2023-05-14T11:26:26.996Z,0.05
2023-05-14T11:28:53.262Z,0.10
2023-05-14T11:31:19.540Z,0.30
2023-05-14T11:33:45.916Z,0.10
2023-05-14T11:36:12.494Z,0.20
2023-05-14T11:38:48.804Z,0.20
2023-05-14T11:41:16.000Z,0.20
2023-05-14T11:43:42.644Z,0.20
2023-05-14T11:46:15.861Z,0.28
2023-05-14T11:48:42.216Z,0.20
2023-05-14T11:51:08.485Z,0.22
2023-05-14T11:53:34.712Z,0.10
2023-05-14T11:56:03.015Z,0.20
2023-05-14T11:58:32.131Z,0.25
2023-05-14T12:00:58.397Z,0.20
2023-05-14T12:03:29.809Z,0.17
2023-05-14T12:05:56.519Z,0.28
2023-05-14T12:08:25.880Z,0.20
2023-05-14T12:10:55.779Z,0.20
2023-05-14T12:13:22.321Z,0.20
2023-05-14T12:15:54.027Z,0.20
2023-05-14T12:18:24.506Z,0.20
2023-05-14T12:20:52.043Z,0.38
2023-05-14T12:23:31.158Z,0.10
2023-05-14T12:26:05.969Z,0.30
2023-05-14T12:28:32.954Z,0.25
2023-05-14T12:31:00.298Z,0.20
2023-05-14T12:33:26.922Z,0.20
2023-05-14T12:36:07.332Z,0.10
2023-05-14T12:38:46.397Z,0.40
2023-05-14T12:41:12.648Z,0.20
2023-05-14T12:43:39.777Z,0.20
2023-05-14T12:46:06.024Z,0.10
2023-05-14T12:48:32.230Z,0.10
2023-05-14T12:50:58.510Z,0.10
2023-05-14T12:53:24.768Z,0.30
2023-05-14T12:55:51.093Z,0.30
2023-05-14T12:58:17.335Z,0.20
2023-05-14T13:00:43.613Z,0.20
2023-05-14T13:03:09.878Z,0.30
2023-05-14T13:05:36.235Z,0.40
2023-05-14T13:08:03.809Z,0.10
2023-05-14T13:10:30.013Z,0.20
2023-05-14T13:12:56.456Z,0.10
2023-05-14T13:15:22.901Z,0.10
2023-05-14T13:17:49.347Z,0.20
2023-05-14T13:20:15.904Z,0.17
2023-05-14T13:22:42.157Z,0.10
2023-05-14T13:25:08.656Z,0.10
2023-05-14T13:27:36.785Z,0.10
2023-05-14T13:30:04.124Z,0.10
2023-05-14T13:32:30.729Z,0.10
2023-05-14T13:34:57.051Z,0.28
2023-05-14T13:37:23.935Z,0.20
2023-05-14T13:39:51.435Z,0.20
2023-05-14T13:42:17.881Z,0.20
2023-05-14T13:44:44.118Z,0.20
2023-05-14T13:47:10.571Z,0.20
2023-05-14T13:49:36.820Z,0.13
2023-05-14T13:52:03.095Z,0.20
2023-05-14T13:54:29.309Z,0.20
2023-05-14T13:56:55.981Z,0.20
2023-05-14T13:59:23.543Z,0.15
2023-05-14T14:01:51.405Z,0.20
2023-05-14T14:04:17.701Z,0.30
2023-05-14T14:06:43.925Z,0.20
2023-05-14T14:09:10.457Z,0.20
2023-05-14T14:11:36.783Z,0.10
2023-05-14T14:14:03.047Z,0.10
2023-05-14T14:16:29.437Z,0.10
2023-05-14T14:18:55.938Z,0.10
2023-05-14T14:21:22.223Z,0.10
2023-05-14T14:23:48.752Z,0.10
2023-05-14T14:26:15.165Z,0.30
2023-05-14T14:28:41.508Z,0.00
2023-05-14T14:31:07.719Z,0.00
2023-05-14T14:33:34.026Z,0.10
2023-05-14T14:36:00.333Z,0.20
2023-05-14T14:38:26.577Z,0.20
2023-05-14T14:40:52.861Z,0.10
2023-05-14T14:43:19.117Z,0.05
2023-05-14T14:45:48.160Z,0.10
2023-05-14T14:48:24.901Z,0.10
2023-05-14T14:50:51.920Z,0.10
2023-05-14T14:53:18.808Z,0.20
2023-05-14T14:55:45.116Z,0.10
2023-05-14T14:58:11.348Z,0.20
2023-05-14T15:00:40.154Z,0.10
2023-05-14T15:03:07.033Z,0.10
2023-05-14T15:05:33.354Z,0.10
2023-05-14T15:07:59.614Z,0.17
2023-05-14T15:10:27.405Z,0.10
2023-05-14T15:12:54.356Z,0.10
2023-05-14T15:15:21.233Z,0.30
2023-05-14T15:17:47.730Z,0.30
2023-05-14T15:20:14.550Z,0.10
2023-05-14T15:22:40.860Z,0.10
2023-05-14T15:25:07.266Z,0.13
2023-05-14T15:27:33.500Z,0.20
2023-05-14T15:29:59.716Z,0.20
2023-05-14T15:32:28.178Z,0.00
2023-05-14T15:34:55.362Z,0.17
2023-05-14T15:37:23.271Z,0.20
2023-05-14T15:39:49.467Z,0.10
2023-05-14T15:42:15.709Z,0.10
2023-05-14T15:44:42.090Z,0.22
2023-05-14T15:47:08.305Z,0.15
2023-05-14T15:49:34.524Z,0.15
2023-05-14T15:52:00.820Z,0.25
2023-05-14T15:54:27.147Z,0.28
2023-05-14T15:56:53.395Z,0.22
2023-05-14T15:59:19.616Z,0.20
2023-05-14T16:01:46.061Z,0.30
2023-05-14T16:04:12.447Z,0.28
2023-05-14T16:06:41.796Z,0.40
2023-05-14T16:09:08.306Z,0.10
2023-05-14T16:11:34.524Z,0.28
2023-05-14T16:14:00.792Z,0.30
2023-05-14T16:16:27.110Z,0.20
2023-05-14T16:18:53.404Z,0.30
2023-05-14T16:21:19.664Z,0.68
2023-05-14T16:23:46.168Z,0.30
2023-05-14T16:26:12.469Z,0.20
2023-05-14T16:28:41.140Z,0.22
2023-05-14T16:31:07.523Z,0.43
2023-05-14T16:33:33.728Z,0.20
2023-05-14T16:35:59.958Z,0.35
2023-05-14T16:38:26.231Z,0.40
2023-05-14T16:40:52.464Z,0.20
2023-05-14T16:43:18.703Z,0.22
2023-05-14T16:45:44.997Z,0.20
2023-05-14T16:48:11.447Z,0.30
2023-05-14T16:50:37.751Z,0.32
2023-05-14T16:53:04.060Z,0.40
2023-05-14T16:55:30.272Z,1.20
2023-05-14T16:57:56.512Z,0.40
2023-05-14T17:00:22.815Z,0.20
2023-05-14T17:02:49.811Z,0.40
2023-05-14T17:05:16.249Z,0.13
2023-05-14T17:07:42.474Z,0.20
2023-05-14T17:10:09.062Z,0.30
2023-05-14T17:12:35.272Z,0.20
2023-05-14T17:15:04.492Z,0.30
2023-05-14T17:17:33.706Z,0.30
2023-05-14T17:20:00.537Z,0.20
2023-05-14T17:22:27.140Z,0.20
2023-05-14T17:24:53.353Z,0.30
2023-05-14T17:27:19.570Z,0.70
2023-05-14T17:29:45.791Z,0.50
2023-05-14T17:32:12.065Z,0.55
2023-05-14T17:34:38.334Z,0.40
2023-05-14T17:37:04.730Z,0.20
2023-05-14T17:39:30.950Z,0.30
2023-05-14T17:41:57.207Z,0.22
2023-05-14T17:44:23.494Z,0.35
2023-05-14T17:46:49.956Z,0.40
2023-05-14T17:49:16.220Z,0.50
2023-05-14T17:51:42.462Z,0.90
2023-05-14T17:54:08.898Z,1.40
2023-05-14T17:56:35.207Z,0.73
2023-05-14T17:59:01.474Z,0.98
2023-05-14T18:01:27.707Z,0.50
2023-05-14T18:03:54.018Z,0.55
2023-05-14T18:06:20.419Z,0.68
2023-05-14T18:08:46.652Z,0.60
2023-05-14T18:11:12.913Z,0.70
2023-05-14T18:13:39.141Z,0.57
2023-05-14T18:16:05.426Z,0.50
2023-05-14T18:18:31.724Z,1.00
2023-05-14T18:20:58.030Z,0.55
2023-05-14T18:23:24.353Z,0.70
2023-05-14T18:25:50.599Z,0.63
2023-05-14T18:28:16.863Z,1.08
2023-05-14T18:30:43.528Z,0.80
2023-05-14T18:33:10.055Z,0.80
2023-05-14T18:35:36.433Z,0.60
2023-05-14T18:38:02.818Z,0.47
2023-05-14T18:40:29.055Z,0.82
2023-05-14T18:42:56.598Z,0.70
2023-05-14T18:45:24.118Z,0.63
2023-05-14T18:47:51.286Z,0.68
2023-05-14T18:50:17.674Z,0.57
2023-05-14T18:52:43.964Z,0.80
2023-05-14T18:55:10.196Z,0.45
2023-05-14T18:57:36.779Z,0.60
2023-05-14T19:00:03.837Z,0.80
2023-05-14T19:02:31.088Z,0.80
2023-05-14T19:04:57.403Z,0.63
2023-05-14T19:07:23.656Z,0.60
2023-05-14T19:09:50.281Z,0.55
2023-05-14T19:12:16.610Z,0.65
2023-05-14T19:14:42.866Z,0.60
2023-05-14T19:17:09.286Z,0.60
2023-05-14T19:19:35.780Z,0.60
2023-05-14T19:22:02.073Z,0.68
2023-05-14T19:24:28.322Z,0.55
2023-05-14T19:26:54.547Z,1.10
2023-05-14T19:29:20.825Z,0.82
2023-05-14T19:31:47.263Z,1.23
2023-05-14T19:34:13.906Z,0.57
2023-05-14T19:36:40.184Z,0.60
2023-05-14T19:39:06.451Z,1.30
2023-05-14T19:41:32.697Z,0.90
2023-05-14T19:43:58.945Z,1.00
2023-05-14T19:46:25.277Z,1.33
2023-05-14T19:48:51.825Z,0.82
2023-05-14T19:51:18.088Z,0.82
2023-05-14T19:53:44.406Z,0.90
2023-05-14T19:56:10.825Z,0.90
2023-05-14T19:58:37.065Z,0.77
2023-05-14T20:01:04.220Z,0.68
2023-05-14T20:03:30.653Z,0.95
2023-05-14T20:05:56.927Z,1.30
2023-05-14T20:08:23.236Z,1.30
2023-05-14T20:10:49.521Z,1.30
2023-05-14T20:13:15.820Z,1.55
2023-05-14T20:15:42.874Z,1.13
2023-05-14T20:18:09.221Z,1.20
2023-05-14T20:20:35.743Z,1.30
2023-05-14T20:23:02.101Z,0.90
2023-05-14T20:25:28.885Z,0.60
2023-05-14T20:27:55.382Z,0.60
2023-05-14T20:30:21.690Z,0.60
2023-05-14T20:32:48.041Z,0.85
2023-05-14T20:35:14.438Z,0.93
2023-05-14T20:37:41.253Z,0.70
2023-05-14T20:40:10.315Z,0.70
2023-05-14T20:42:36.650Z,0.40
2023-05-14T20:45:03.639Z,0.40
2023-05-14T20:47:31.279Z,0.70
2023-05-14T20:49:57.629Z,0.73
2023-05-14T20:52:24.018Z,0.80
2023-05-14T20:54:50.376Z,0.77
2023-05-14T20:57:16.709Z,1.05
2023-05-14T20:59:43.107Z,1.02
2023-05-14T21:02:09.509Z,1.30
2023-05-14T21:04:35.958Z,0.90
2023-05-14T21:07:02.788Z,1.00
2023-05-14T21:09:29.040Z,0.75
2023-05-14T21:11:55.387Z,0.80
2023-05-14T21:14:21.871Z,0.90
2023-05-14T21:16:48.419Z,0.60
2023-05-14T21:19:15.618Z,0.68
2023-05-14T21:21:42.052Z,0.88
2023-05-14T21:24:08.568Z,1.17
2023-05-14T21:26:36.827Z,0.70
2023-05-14T21:29:03.770Z,0.80
2023-05-14T21:31:30.021Z,0.50
2023-05-14T21:33:56.386Z,0.63
2023-05-14T21:36:22.690Z,0.70
2023-05-14T21:38:48.908Z,0.90
2023-05-14T21:41:15.265Z,0.55
2023-05-14T21:43:41.628Z,0.65
2023-05-14T21:46:08.481Z,0.90
2023-05-14T21:48:34.800Z,0.70
2023-05-14T21:51:01.180Z,0.70
2023-05-14T21:53:27.458Z,0.70
2023-05-14T21:55:55.148Z,0.90
2023-05-14T21:58:21.539Z,0.70
2023-05-14T22:00:47.860Z,0.82
2023-05-14T22:03:14.477Z,0.70
2023-05-14T22:05:40.880Z,0.68
2023-05-14T22:08:07.181Z,0.85
2023-05-14T22:10:34.187Z,0.65
2023-05-14T22:13:00.432Z,0.50
2023-05-14T22:15:26.780Z,0.63
2023-05-14T22:17:53.167Z,0.50
2023-05-14T22:20:19.498Z,0.60
2023-05-14T22:22:45.726Z,0.50
2023-05-14T22:25:11.942Z,0.60
2023-05-14T22:27:38.227Z,0.60
2023-05-14T22:30:04.793Z,0.52
2023-05-14T22:32:31.079Z,0.57
2023-05-14T22:34:57.397Z,0.57
2023-05-14T22:37:23.783Z,0.52
2023-05-14T22:39:50.084Z,0.50
2023-05-14T22:42:16.314Z,0.40
2023-05-14T22:44:42.620Z,0.40
2023-05-14T22:47:08.922Z,0.55
2023-05-14T22:49:35.144Z,0.40
2023-05-14T22:52:01.523Z,0.50
2023-05-14T22:54:27.776Z,0.80
2023-05-14T22:56:54.051Z,0.45
2023-05-14T22:59:22.708Z,0.40
2023-05-14T23:01:49.998Z,0.50
2023-05-14T23:04:16.315Z,0.43
2023-05-14T23:06:42.576Z,0.50
2023-05-14T23:09:08.821Z,0.60
2023-05-14T23:11:35.053Z,0.40
2023-05-14T23:14:01.312Z,0.40
2023-05-14T23:16:27.644Z,0.50
2023-05-14T23:18:54.101Z,0.47
2023-05-14T23:21:20.597Z,0.70
2023-05-14T23:23:48.349Z,0.50
2023-05-14T23:26:14.721Z,0.50
2023-05-14T23:28:41.039Z,0.40
2023-05-14T23:31:07.259Z,0.50
2023-05-14T23:33:33.499Z,0.43
2023-05-14T23:35:59.742Z,0.57
2023-05-14T23:38:26.044Z,0.40
2023-05-14T23:40:52.269Z,0.50
2023-05-14T23:43:18.529Z,0.45
2023-05-14T23:45:44.883Z,0.47
2023-05-14T23:48:11.192Z,0.50
2023-05-14T23:50:38.052Z,0.40
2023-05-14T23:53:04.305Z,0.57
2023-05-14T23:55:30.803Z,0.43
2023-05-14T23:57:57.090Z,0.50
